createdAt,value
2024-02-19T00:01:42.119Z,67.54
2024-02-19T00:04:08.887Z,67.85
2024-02-19T00:06:36.027Z,67.42
2024-02-19T00:09:02.770Z,67.49
2024-02-19T00:11:30.959Z,67.78
2024-02-19T00:13:59.183Z,67.87
2024-02-19T00:16:25.809Z,67.75
2024-02-19T00:18:52.585Z,66.81
2024-02-19T00:21:19.360Z,66.71
2024-02-19T00:23:45.947Z,67.06
2024-02-19T00:26:14.210Z,66.95
2024-02-19T00:28:41.031Z,67.00
2024-02-19T00:31:11.671Z,66.92
2024-02-19T00:33:39.500Z,66.31
2024-02-19T00:36:06.538Z,66.64
2024-02-19T00:38:33.187Z,66.28
2024-02-19T00:40:59.781Z,66.05
2024-02-19T00:43:26.881Z,66.52
2024-02-19T00:45:53.493Z,67.10
2024-02-19T00:48:20.047Z,68.03
2024-02-19T00:50:46.585Z,67.66
2024-02-19T00:53:13.156Z,67.23
2024-02-19T00:55:39.822Z,67.68
2024-02-19T00:58:06.421Z,68.78
2024-02-19T01:00:33.063Z,69.43
2024-02-19T01:02:59.719Z,70.53
2024-02-19T01:05:26.474Z,71.41
2024-02-19T01:07:53.101Z,71.30
2024-02-19T01:10:20.354Z,71.99
2024-02-19T01:12:47.034Z,71.75
2024-02-19T01:15:13.666Z,73.10
2024-02-19T01:17:40.211Z,73.92
2024-02-19T01:20:08.601Z,74.26
2024-02-19T01:22:35.164Z,74.15
2024-02-19T01:25:02.449Z,73.88
2024-02-19T01:27:29.817Z,75.13
2024-02-19T01:29:56.394Z,75.20
2024-02-19T01:32:24.082Z,74.89
2024-02-19T01:34:50.742Z,74.54
2024-02-19T01:37:17.477Z,73.33
2024-02-19T01:39:44.334Z,73.40
2024-02-19T01:42:11.369Z,73.24
2024-02-19T01:44:38.178Z,74.18
2024-02-19T01:47:04.921Z,73.62
2024-02-19T01:49:32.454Z,73.17
2024-02-19T01:52:00.837Z,73.10
2024-02-19T01:54:27.975Z,74.20
2024-02-19T01:56:54.707Z,73.04
2024-02-19T01:59:22.857Z,73.89
2024-02-19T02:01:50.050Z,74.54
2024-02-19T02:04:19.752Z,73.51
2024-02-19T02:06:47.161Z,72.60
2024-02-19T02:09:13.852Z,73.37
2024-02-19T02:11:40.396Z,73.74
2024-02-19T02:14:06.916Z,74.51
2024-02-19T02:16:34.581Z,73.22
2024-02-19T02:19:01.244Z,72.44
2024-02-19T02:21:28.080Z,72.55
2024-02-19T02:23:54.707Z,72.51
2024-02-19T02:26:21.292Z,72.61
2024-02-19T02:28:48.213Z,71.85
2024-02-19T02:31:15.076Z,72.20
2024-02-19T02:33:41.896Z,71.39
2024-02-19T02:36:11.412Z,71.73
2024-02-19T02:38:38.026Z,72.38
2024-02-19T02:41:04.702Z,73.24
2024-02-19T02:43:31.326Z,71.73
2024-02-19T02:45:57.948Z,70.78
2024-02-19T02:48:24.857Z,70.08
2024-02-19T02:50:51.509Z,70.13
2024-02-19T02:53:18.550Z,70.76
2024-02-19T02:55:45.119Z,70.63
2024-02-19T02:58:11.825Z,70.32
2024-02-19T03:00:38.817Z,70.94
2024-02-19T03:03:05.589Z,71.53
2024-02-19T03:05:32.184Z,71.94
2024-02-19T03:07:59.317Z,72.69
2024-02-19T03:10:26.046Z,72.09
2024-02-19T03:12:52.698Z,72.33
2024-02-19T03:15:19.441Z,71.79
2024-02-19T03:17:46.371Z,73.26
2024-02-19T03:20:15.095Z,73.62
2024-02-19T03:22:44.548Z,74.47
2024-02-19T03:25:11.423Z,74.29
2024-02-19T03:27:38.972Z,73.88
2024-02-19T03:30:07.809Z,73.30
2024-02-19T03:32:34.488Z,73.45
2024-02-19T03:35:01.109Z,74.33
2024-02-19T03:37:27.693Z,74.69
2024-02-19T03:39:54.328Z,73.28
2024-02-19T03:42:20.936Z,73.04
2024-02-19T03:44:48.042Z,73.30
2024-02-19T03:47:14.663Z,73.23
2024-02-19T03:49:41.306Z,72.53
2024-02-19T03:52:08.023Z,72.12
2024-02-19T03:54:34.626Z,72.35
2024-02-19T03:57:01.289Z,73.10
2024-02-19T03:59:27.879Z,71.67
2024-02-19T04:01:54.542Z,72.48
2024-02-19T04:04:21.656Z,71.90
2024-02-19T04:06:48.446Z,72.31
2024-02-19T04:09:15.111Z,71.01
2024-02-19T04:11:41.785Z,69.79
2024-02-19T04:14:08.408Z,70.04
2024-02-19T04:16:34.973Z,70.93
2024-02-19T04:19:01.815Z,70.85
2024-02-19T04:21:28.496Z,71.47
2024-02-19T04:23:55.123Z,70.27
2024-02-19T04:26:21.701Z,71.48
2024-02-19T04:28:48.246Z,72.14
2024-02-19T04:31:14.962Z,71.52
2024-02-19T04:33:44.733Z,72.38
2024-02-19T04:36:11.395Z,70.92
2024-02-19T04:38:38.003Z,71.38
2024-02-19T04:41:05.334Z,71.32
2024-02-19T04:43:31.986Z,70.29
2024-02-19T04:45:58.577Z,70.54
2024-02-19T04:48:25.203Z,70.75
2024-02-19T04:50:52.365Z,70.64
2024-02-19T04:53:19.332Z,70.32
2024-02-19T04:55:46.725Z,71.11
2024-02-19T04:58:13.411Z,73.28
2024-02-19T05:00:41.690Z,71.63
2024-02-19T05:03:08.745Z,70.75
2024-02-19T05:05:36.215Z,73.47
2024-02-19T05:08:04.266Z,71.67
2024-02-19T05:10:30.919Z,70.65
2024-02-19T05:12:57.977Z,71.86
2024-02-19T05:15:24.801Z,71.29
2024-02-19T05:17:51.512Z,71.40
2024-02-19T05:20:18.699Z,70.43
2024-02-19T05:22:48.610Z,70.39
2024-02-19T05:25:15.270Z,70.70
2024-02-19T05:27:41.963Z,70.45
2024-02-19T05:30:08.925Z,69.12
2024-02-19T05:32:35.538Z,69.67
2024-02-19T05:35:04.311Z,70.39
2024-02-19T05:37:31.870Z,70.57
2024-02-19T05:39:58.703Z,69.81
2024-02-19T05:42:25.263Z,68.89
2024-02-19T05:44:51.815Z,70.22
2024-02-19T05:47:18.552Z,69.67
2024-02-19T05:49:46.354Z,68.80
2024-02-19T05:52:13.244Z,69.44
2024-02-19T05:54:40.229Z,69.75
2024-02-19T05:57:07.876Z,69.91
2024-02-19T05:59:35.123Z,69.39
2024-02-19T06:02:02.261Z,68.94
2024-02-19T06:04:29.231Z,69.24
2024-02-19T06:06:55.894Z,68.58
2024-02-19T06:09:22.587Z,68.15
2024-02-19T06:11:49.174Z,67.82
2024-02-19T06:14:15.738Z,68.46
2024-02-19T06:16:42.297Z,67.19
2024-02-19T06:19:09.939Z,66.89
2024-02-19T06:21:36.917Z,66.86
2024-02-19T06:24:03.663Z,67.73
2024-02-19T06:26:30.259Z,67.73
2024-02-19T06:28:56.862Z,67.64
2024-02-19T06:31:28.730Z,67.09
2024-02-19T06:33:56.198Z,67.33
2024-02-19T06:36:23.339Z,66.95
2024-02-19T06:38:49.928Z,67.04
2024-02-19T06:41:16.542Z,66.66
2024-02-19T06:43:43.131Z,67.20
2024-02-19T06:46:13.037Z,66.48
2024-02-19T06:48:42.709Z,67.17
2024-02-19T06:51:09.385Z,66.82
2024-02-19T06:53:36.019Z,66.53
2024-02-19T06:56:02.687Z,66.85
2024-02-19T06:58:29.508Z,67.44
2024-02-19T07:00:56.338Z,67.67
2024-02-19T07:03:22.977Z,67.66
2024-02-19T07:05:49.701Z,67.26
2024-02-19T07:08:16.351Z,67.38
2024-02-19T07:10:43.482Z,68.53
2024-02-19T07:13:10.154Z,68.69
2024-02-19T07:15:36.758Z,69.18
2024-02-19T07:18:03.685Z,69.03
2024-02-19T07:20:30.283Z,68.51
2024-02-19T07:22:56.893Z,69.79
2024-02-19T07:25:23.608Z,69.02
2024-02-19T07:27:50.275Z,67.97
2024-02-19T07:30:17.087Z,68.28
2024-02-19T07:32:44.244Z,69.17
2024-02-19T07:35:11.118Z,68.82
2024-02-19T07:37:38.054Z,69.24
2024-02-19T07:40:05.776Z,69.48
2024-02-19T07:42:32.453Z,69.00
2024-02-19T07:44:59.037Z,70.53
2024-02-19T07:47:25.632Z,69.24
2024-02-19T07:49:52.341Z,68.56
2024-02-19T07:52:19.042Z,70.19
2024-02-19T07:54:45.734Z,70.06
2024-02-19T07:57:12.531Z,71.36
2024-02-19T07:59:39.442Z,71.15
2024-02-19T08:02:07.560Z,71.08
2024-02-19T08:04:34.388Z,70.52
2024-02-19T08:07:02.059Z,71.11
2024-02-19T08:09:28.922Z,69.66
2024-02-19T08:11:58.425Z,69.40
2024-02-19T08:14:28.183Z,69.04
2024-02-19T08:16:54.975Z,70.26
2024-02-19T08:19:21.970Z,69.46
2024-02-19T08:21:49.633Z,68.93
2024-02-19T08:24:16.304Z,69.08
2024-02-19T08:26:42.986Z,70.20
2024-02-19T08:29:09.673Z,69.97
2024-02-19T08:31:36.209Z,71.59
2024-02-19T08:34:02.940Z,71.33
2024-02-19T08:36:29.590Z,70.71
2024-02-19T08:38:56.978Z,70.24
2024-02-19T08:41:24.223Z,70.94
2024-02-19T08:43:50.929Z,70.35
2024-02-19T08:46:17.717Z,69.78
2024-02-19T08:48:44.914Z,69.17
2024-02-19T08:51:11.718Z,68.84
2024-02-19T08:53:38.255Z,69.65
2024-02-19T08:56:05.599Z,70.17
2024-02-19T08:58:32.559Z,69.88
2024-02-19T09:01:00.615Z,69.79
2024-02-19T09:03:28.395Z,70.49
2024-02-19T09:05:55.236Z,70.48
2024-02-19T09:08:21.953Z,70.41
2024-02-19T09:10:48.603Z,70.63
2024-02-19T09:13:15.163Z,70.47
2024-02-19T09:15:42.000Z,69.74
2024-02-19T09:18:08.810Z,69.72
2024-02-19T09:20:35.958Z,70.25
2024-02-19T09:23:02.819Z,69.32
2024-02-19T09:25:30.340Z,69.32
2024-02-19T09:27:57.277Z,69.68
2024-02-19T09:30:24.755Z,68.77
2024-02-19T09:32:51.518Z,67.97
2024-02-19T09:35:19.513Z,66.88
2024-02-19T09:37:49.229Z,67.61
2024-02-19T09:40:17.655Z,67.03
2024-02-19T09:42:48.271Z,66.04
2024-02-19T09:45:15.431Z,66.16
2024-02-19T09:47:45.789Z,65.46
2024-02-19T09:50:14.828Z,65.36
2024-02-19T09:52:45.012Z,64.95
2024-02-19T09:55:11.763Z,64.94
2024-02-19T09:57:38.393Z,64.42
2024-02-19T10:00:06.010Z,64.15
2024-02-19T10:02:35.431Z,64.41
2024-02-19T10:05:02.784Z,64.57
2024-02-19T10:07:31.932Z,63.78
2024-02-19T10:09:58.613Z,63.53
2024-02-19T10:12:25.206Z,64.00
2024-02-19T10:14:52.357Z,64.39
2024-02-19T10:17:24.788Z,64.63
2024-02-19T10:20:02.381Z,63.51
2024-02-19T10:22:28.986Z,63.19
2024-02-19T10:24:55.673Z,63.10
2024-02-19T10:27:22.449Z,62.73
2024-02-19T10:29:49.194Z,62.85
2024-02-19T10:32:15.789Z,62.21
2024-02-19T10:34:42.420Z,62.15
2024-02-19T10:37:09.069Z,60.88
2024-02-19T10:39:35.721Z,59.12
2024-02-19T10:42:03.026Z,60.87
2024-02-19T10:44:30.072Z,60.50
2024-02-19T10:46:57.008Z,59.45
2024-02-19T10:49:23.764Z,58.01
2024-02-19T10:51:51.996Z,57.75
2024-02-19T10:54:20.202Z,57.27
2024-02-19T10:56:47.247Z,58.51
2024-02-19T10:59:16.107Z,58.37
2024-02-19T11:01:46.271Z,58.75
2024-02-19T11:04:15.974Z,58.14
2024-02-19T11:06:57.009Z,57.39
2024-02-19T11:09:36.940Z,58.31
2024-02-19T11:12:06.461Z,58.46
2024-02-19T11:14:36.801Z,58.92
2024-02-19T11:17:04.283Z,59.79
2024-02-19T11:19:41.471Z,59.15
2024-02-19T11:22:10.653Z,60.29
2024-02-19T11:24:39.207Z,60.47
2024-02-19T11:27:07.115Z,61.71
2024-02-19T11:29:43.399Z,60.68
2024-02-19T11:32:20.213Z,60.49
2024-02-19T11:34:48.543Z,61.31
2024-02-19T11:37:15.509Z,62.08
2024-02-19T11:39:43.848Z,61.67
2024-02-19T11:42:13.083Z,61.09
2024-02-19T11:44:40.248Z,60.55
2024-02-19T11:47:08.912Z,60.82
2024-02-19T11:49:35.864Z,61.88
2024-02-19T11:52:11.250Z,62.59
2024-02-19T11:54:40.151Z,62.39
2024-02-19T11:57:10.377Z,62.57
2024-02-19T11:59:37.280Z,62.97
2024-02-19T12:02:05.868Z,62.50
2024-02-19T12:04:37.555Z,62.10
2024-02-19T12:07:04.726Z,61.66
2024-02-19T12:09:31.689Z,60.93
2024-02-19T12:11:59.132Z,60.47
2024-02-19T12:14:25.924Z,60.69
2024-02-19T12:16:55.485Z,62.33
2024-02-19T12:19:22.420Z,61.49
2024-02-19T12:21:50.504Z,60.29
2024-02-19T12:24:17.208Z,59.34
2024-02-19T12:26:45.668Z,59.52
2024-02-19T12:29:14.154Z,58.83
2024-02-19T12:31:41.293Z,60.10
2024-02-19T12:34:08.884Z,59.01
2024-02-19T12:36:36.628Z,58.48
2024-02-19T12:39:04.054Z,59.31
2024-02-19T12:41:30.896Z,58.79
2024-02-19T12:43:58.127Z,59.11
2024-02-19T12:46:26.042Z,59.73
2024-02-19T12:48:53.176Z,59.78
2024-02-19T12:51:20.724Z,58.42
2024-02-19T12:53:47.431Z,58.05
2024-02-19T12:56:14.007Z,58.28
2024-02-19T12:58:40.806Z,59.06
2024-02-19T13:01:20.292Z,59.50
2024-02-19T13:03:54.654Z,60.32
2024-02-19T13:06:21.642Z,59.70
2024-02-19T13:08:49.020Z,61.79
2024-02-19T13:11:15.976Z,61.44
2024-02-19T13:13:42.957Z,60.13
2024-02-19T13:16:09.702Z,60.65
2024-02-19T13:18:37.334Z,61.90
2024-02-19T13:21:04.879Z,62.74
2024-02-19T13:23:31.647Z,62.07
2024-02-19T13:25:58.275Z,62.55
2024-02-19T13:28:24.899Z,63.77
2024-02-19T13:30:51.619Z,63.37
2024-02-19T13:33:19.242Z,63.25
2024-02-19T13:35:46.016Z,62.99
2024-02-19T13:38:13.919Z,63.59
2024-02-19T13:40:40.696Z,63.09
2024-02-19T13:43:07.520Z,62.64
2024-02-19T13:46:04.549Z,63.13
2024-02-19T13:48:32.028Z,64.40
2024-02-19T13:50:59.447Z,63.89
2024-02-19T13:53:29.184Z,63.27
2024-02-19T13:55:58.018Z,63.42
2024-02-19T13:58:26.327Z,63.27
2024-02-19T14:00:59.219Z,63.48
2024-02-19T14:03:26.258Z,62.34
2024-02-19T14:05:53.270Z,62.73
2024-02-19T14:08:20.944Z,62.89
2024-02-19T14:10:52.804Z,63.93
2024-02-19T14:13:20.435Z,64.70
2024-02-19T14:15:47.435Z,65.12
2024-02-19T14:18:14.318Z,64.93
2024-02-19T14:20:40.971Z,64.85
2024-02-19T14:23:10.129Z,65.35
2024-02-19T14:25:37.086Z,65.98
2024-02-19T14:28:05.267Z,65.51
2024-02-19T14:30:32.459Z,64.41
2024-02-19T14:32:59.675Z,64.69
2024-02-19T14:35:26.598Z,66.63
2024-02-19T14:37:54.904Z,65.90
2024-02-19T14:40:21.709Z,64.83
2024-02-19T14:42:49.519Z,64.75
2024-02-19T14:45:16.964Z,64.47
2024-02-19T14:47:46.551Z,63.97
2024-02-19T14:50:14.538Z,63.57
2024-02-19T14:52:42.235Z,64.78
2024-02-19T14:55:10.962Z,63.91
2024-02-19T14:57:47.131Z,65.15
2024-02-19T15:00:21.332Z,65.02
2024-02-19T15:02:49.078Z,63.61
2024-02-19T15:05:16.069Z,64.65
2024-02-19T15:07:45.447Z,64.03
2024-02-19T15:10:15.911Z,64.09
2024-02-19T15:12:42.705Z,64.24
2024-02-19T15:15:10.135Z,63.71
2024-02-19T15:17:36.890Z,64.26
2024-02-19T15:20:04.082Z,64.18
2024-02-19T15:22:30.912Z,64.12
2024-02-19T15:24:57.645Z,64.69
2024-02-19T15:27:27.356Z,64.38
2024-02-19T15:29:58.135Z,63.58
2024-02-19T15:32:25.542Z,64.71
2024-02-19T15:34:54.225Z,63.82
2024-02-19T15:37:21.652Z,63.28
2024-02-19T15:39:48.420Z,62.18
2024-02-19T15:42:14.986Z,61.72
2024-02-19T15:44:44.021Z,61.91
2024-02-19T15:47:10.679Z,61.50
2024-02-19T15:49:37.384Z,63.62
2024-02-19T15:52:04.348Z,63.42
2024-02-19T15:54:30.969Z,62.24
2024-02-19T15:56:57.631Z,61.17
2024-02-19T15:59:24.307Z,62.10
2024-02-19T16:01:53.070Z,61.39
2024-02-19T16:04:20.658Z,61.57
2024-02-19T16:06:50.988Z,62.31
2024-02-19T16:09:17.642Z,63.47
2024-02-19T16:11:44.415Z,62.47
2024-02-19T16:14:11.087Z,61.94
2024-02-19T16:16:38.364Z,62.03
2024-02-19T16:19:05.262Z,62.95
2024-02-19T16:21:33.163Z,64.62
2024-02-19T16:23:59.751Z,63.92
2024-02-19T16:26:27.104Z,64.25
2024-02-19T16:28:54.552Z,63.82
2024-02-19T16:31:21.161Z,63.64
2024-02-19T16:33:48.367Z,63.33
2024-02-19T16:36:15.317Z,63.62
2024-02-19T16:38:44.079Z,63.26
2024-02-19T16:41:10.843Z,62.95
2024-02-19T16:43:37.652Z,63.29
2024-02-19T16:46:06.016Z,62.48
2024-02-19T16:48:40.206Z,63.49
2024-02-19T16:51:08.210Z,64.43
2024-02-19T16:53:35.450Z,65.33
2024-02-19T16:56:03.711Z,66.34
2024-02-19T16:58:33.413Z,65.96
2024-02-19T17:01:03.480Z,64.38
2024-02-19T17:03:30.467Z,64.78
2024-02-19T17:05:57.392Z,64.33
2024-02-19T17:08:26.982Z,63.57
2024-02-19T17:10:54.456Z,63.17
2024-02-19T17:13:21.187Z,62.73
2024-02-19T17:15:48.019Z,62.88
2024-02-19T17:18:18.656Z,61.98
2024-02-19T17:20:45.538Z,62.93
2024-02-19T17:23:15.333Z,61.82
2024-02-19T17:25:42.222Z,62.25
2024-02-19T17:28:09.238Z,62.52
2024-02-19T17:30:36.088Z,61.76
2024-02-19T17:33:02.814Z,61.06
2024-02-19T17:35:31.121Z,62.31
2024-02-19T17:37:58.291Z,62.88
2024-02-19T17:40:25.104Z,62.93
2024-02-19T17:42:52.128Z,62.51
2024-02-19T17:45:19.332Z,62.12
2024-02-19T17:47:49.319Z,62.51
2024-02-19T17:50:16.171Z,61.99
2024-02-19T17:52:45.983Z,61.70
2024-02-19T17:55:12.792Z,61.04
2024-02-19T17:57:40.400Z,61.06
2024-02-19T18:00:10.270Z,61.10
2024-02-19T18:02:40.111Z,62.18
2024-02-19T18:05:07.095Z,63.46
2024-02-19T18:07:33.775Z,62.83
2024-02-19T18:10:00.704Z,64.23
2024-02-19T18:12:27.668Z,64.04
2024-02-19T18:14:54.514Z,65.09
2024-02-19T18:17:21.152Z,64.10
2024-02-19T18:19:48.834Z,63.97
2024-02-19T18:22:15.531Z,64.25
2024-02-19T18:24:42.323Z,63.95
2024-02-19T18:27:09.491Z,64.47
2024-02-19T18:29:36.865Z,64.81
2024-02-19T18:32:03.669Z,65.17
2024-02-19T18:34:31.816Z,64.38
2024-02-19T18:37:00.184Z,64.15
2024-02-19T18:39:29.029Z,66.20
2024-02-19T18:41:57.730Z,64.94
2024-02-19T18:44:24.474Z,64.75
2024-02-19T18:46:51.088Z,64.62
2024-02-19T18:49:18.352Z,65.43
2024-02-19T18:51:47.324Z,64.44
2024-02-19T18:54:15.483Z,66.13
2024-02-19T18:56:42.323Z,65.63
2024-02-19T18:59:09.189Z,65.73
2024-02-19T19:01:36.301Z,66.06
2024-02-19T19:04:04.089Z,64.54
2024-02-19T19:06:31.376Z,65.83
2024-02-19T19:09:04.202Z,65.04
2024-02-19T19:11:30.909Z,65.91
2024-02-19T19:13:57.724Z,66.57
2024-02-19T19:16:24.537Z,67.79
2024-02-19T19:18:52.438Z,66.33
2024-02-19T19:21:20.146Z,64.58
2024-02-19T19:23:48.956Z,66.22
2024-02-19T19:26:15.656Z,66.16
2024-02-19T19:28:42.295Z,65.68
2024-02-19T19:31:09.075Z,64.55
2024-02-19T19:33:36.058Z,64.55
2024-02-19T19:36:03.063Z,64.94
2024-02-19T19:38:30.556Z,65.01
2024-02-19T19:40:57.997Z,64.18
2024-02-19T19:43:25.145Z,63.22
2024-02-19T19:45:54.240Z,63.31
2024-02-19T19:48:28.103Z,63.34
2024-02-19T19:50:56.356Z,62.59
2024-02-19T19:53:24.070Z,63.07
2024-02-19T19:55:55.017Z,63.49
2024-02-19T19:58:31.005Z,63.26
2024-02-19T20:00:59.995Z,62.75
2024-02-19T20:03:26.958Z,63.13
2024-02-19T20:05:54.280Z,63.00
2024-02-19T20:08:21.315Z,63.81
2024-02-19T20:10:48.439Z,63.99
2024-02-19T20:13:15.554Z,62.88
2024-02-19T20:15:42.232Z,63.49
2024-02-19T20:18:10.074Z,62.68
2024-02-19T20:20:36.939Z,63.03
2024-02-19T20:23:03.797Z,62.84
2024-02-19T20:25:31.783Z,63.56
2024-02-19T20:28:05.407Z,64.55
2024-02-19T20:30:32.057Z,63.79
2024-02-19T20:32:58.664Z,63.80
2024-02-19T20:35:27.023Z,63.10
2024-02-19T20:37:53.801Z,62.86
2024-02-19T20:40:20.514Z,62.23
2024-02-19T20:42:53.220Z,62.44
2024-02-19T20:45:20.784Z,63.05
2024-02-19T20:47:47.857Z,63.00
2024-02-19T20:50:15.402Z,62.52
2024-02-19T20:52:44.779Z,62.55
2024-02-19T20:55:12.781Z,62.62
2024-02-19T20:57:39.374Z,62.55
2024-02-19T21:00:11.156Z,62.13
2024-02-19T21:02:40.868Z,62.00
2024-02-19T21:05:14.658Z,63.29
2024-02-19T21:07:44.923Z,63.59
2024-02-19T21:10:13.984Z,63.53
2024-02-19T21:12:43.874Z,63.34
2024-02-19T21:15:16.127Z,64.14
2024-02-19T21:17:42.810Z,65.15
2024-02-19T21:20:11.753Z,65.19
2024-02-19T21:22:39.270Z,64.82
2024-02-19T21:25:06.619Z,65.75
2024-02-19T21:27:33.230Z,65.70
2024-02-19T21:29:59.813Z,66.72
2024-02-19T21:32:26.868Z,66.04
2024-02-19T21:34:54.027Z,66.06
2024-02-19T21:37:21.093Z,65.39
2024-02-19T21:39:47.787Z,65.28
2024-02-19T21:42:20.573Z,66.88
2024-02-19T21:44:49.967Z,67.02
2024-02-19T21:47:16.574Z,65.72
2024-02-19T21:49:43.553Z,67.85
2024-02-19T21:52:10.304Z,67.01
2024-02-19T21:54:36.905Z,66.86
2024-02-19T21:57:05.558Z,67.48
2024-02-19T21:59:32.271Z,66.80
2024-02-19T22:01:59.466Z,66.52
2024-02-19T22:04:26.331Z,65.75
2024-02-19T22:06:53.079Z,64.57
2024-02-19T22:09:19.746Z,64.96
2024-02-19T22:11:46.798Z,66.18
2024-02-19T22:14:15.323Z,67.05
2024-02-19T22:16:41.962Z,66.71
2024-02-19T22:19:08.751Z,66.56
2024-02-19T22:21:35.752Z,66.69
2024-02-19T22:24:02.375Z,67.69
2024-02-19T22:26:28.968Z,66.92
2024-02-19T22:28:55.538Z,66.75
2024-02-19T22:31:22.204Z,66.32
2024-02-19T22:33:49.244Z,67.78
2024-02-19T22:36:15.951Z,68.62
2024-02-19T22:38:42.491Z,68.23
2024-02-19T22:41:09.392Z,68.56
2024-02-19T22:43:35.983Z,67.63
2024-02-19T22:46:02.653Z,67.52
2024-02-19T22:48:29.499Z,68.16
2024-02-19T22:50:56.107Z,66.95
2024-02-19T22:53:22.668Z,67.54
2024-02-19T22:55:49.220Z,66.87
2024-02-19T22:58:28.980Z,67.60
2024-02-19T23:00:59.760Z,67.37
2024-02-19T23:03:26.521Z,67.76
2024-02-19T23:05:53.292Z,67.80
2024-02-19T23:08:20.291Z,67.13
2024-02-19T23:10:46.958Z,65.81
2024-02-19T23:13:14.054Z,66.38
2024-02-19T23:15:42.458Z,65.16
2024-02-19T23:18:09.151Z,66.06
2024-02-19T23:20:36.204Z,66.66
2024-02-19T23:23:03.398Z,65.98
2024-02-19T23:25:30.003Z,66.29
2024-02-19T23:27:58.527Z,66.19
2024-02-19T23:30:25.828Z,66.25
2024-02-19T23:32:52.548Z,66.44
2024-02-19T23:35:19.236Z,64.83
2024-02-19T23:37:46.808Z,64.90
2024-02-19T23:40:17.826Z,65.72
2024-02-19T23:42:45.753Z,65.60
2024-02-19T23:45:12.695Z,66.67
2024-02-19T23:47:40.510Z,66.41
2024-02-19T23:50:09.261Z,65.12
2024-02-19T23:52:36.553Z,66.44
2024-02-19T23:55:03.976Z,65.43
2024-02-19T23:57:30.611Z,65.62
2024-02-19T23:59:57.197Z,65.47
